createdAt,value
2016-04-21T00:00:27.911Z,0
2016-04-21T00:01:28.070Z,0
2016-04-21T00:02:27.964Z,0
2016-04-21T00:03:28.139Z,0
2016-04-21T00:04:28.188Z,0
2016-04-21T00:05:28.222Z,0
2016-04-21T00:06:28.255Z,0
2016-04-21T00:07:28.383Z,0
2016-04-21T00:08:28.339Z,0
2016-04-21T00:09:28.358Z,0
2016-04-21T00:10:28.470Z,0
2016-04-21T00:11:28.457Z,0
2016-04-21T00:12:28.460Z,0
2016-04-21T00:13:28.494Z,0
2016-04-21T00:14:28.558Z,0
2016-04-21T00:15:28.671Z,0
2016-04-21T00:16:28.610Z,0
2016-04-21T00:17:28.645Z,0
2016-04-21T00:18:28.694Z,0
2016-04-21T00:19:28.729Z,0
2016-04-21T00:20:28.763Z,0
2016-04-21T00:21:28.812Z,0
2016-04-21T00:22:28.924Z,0
2016-04-21T00:23:28.895Z,0
2016-04-21T00:24:28.898Z,0
2016-04-21T00:25:28.962Z,0
2016-04-21T00:26:29.028Z,0
2016-04-21T00:27:29.000Z,0
2016-04-21T00:28:29.050Z,0
2016-04-21T00:29:29.131Z,0
2016-04-21T00:30:29.164Z,0
2016-04-21T00:31:29.151Z,0
2016-04-21T00:32:29.216Z,0
2016-04-21T00:33:29.453Z,0
2016-04-21T00:34:29.284Z,0
2016-04-21T00:35:29.302Z,0
2016-04-21T00:36:29.384Z,0
2016-04-21T00:37:29.417Z,0
2016-04-21T00:38:28.654Z,0
2016-04-21T00:39:29.470Z,0
2016-04-21T00:40:29.535Z,0
2016-04-21T00:41:29.568Z,0
2016-04-21T00:42:29.555Z,0
2016-04-21T00:43:29.574Z,0
2016-04-21T00:44:29.686Z,0
2016-04-21T00:45:29.689Z,0
2016-04-21T00:46:29.691Z,0
2016-04-21T00:47:29.710Z,0
2016-04-21T00:48:29.056Z,0
2016-04-21T00:49:29.809Z,0
2016-04-21T00:50:29.843Z,0
2016-04-21T00:51:29.939Z,0
2016-04-21T00:52:29.943Z,0
2016-04-21T00:53:29.945Z,0
2016-04-21T00:54:29.979Z,0
2016-04-21T00:55:30.091Z,0
2016-04-21T00:56:30.093Z,0
2016-04-21T00:57:30.096Z,0
2016-04-21T00:58:30.114Z,0
2016-04-21T00:59:30.211Z,0
2016-04-21T01:00:30.198Z,0
2016-04-21T01:01:30.232Z,0
2016-04-21T01:02:29.594Z,0
2016-04-21T01:03:30.409Z,0
2016-04-21T01:04:30.333Z,0
2016-04-21T01:05:30.272Z,0
2016-04-21T01:06:30.540Z,0
2016-04-21T01:07:30.618Z,0
2016-04-21T01:08:30.682Z,0
2016-04-21T01:09:30.782Z,0
2016-04-21T01:10:30.833Z,0
2016-04-21T01:11:30.071Z,0
2016-04-21T01:12:30.918Z,0
2016-04-21T01:13:31.015Z,0
2016-04-21T01:14:31.030Z,0
2016-04-21T01:15:30.899Z,0
2016-04-21T01:16:31.094Z,0
2016-04-21T01:17:31.135Z,0
2016-04-21T01:18:31.236Z,0
2016-04-21T01:19:31.213Z,0
2016-04-21T01:20:31.265Z,0
2016-04-21T01:21:31.191Z,0
2016-04-21T01:22:31.357Z,0
2016-04-21T01:23:30.595Z,0
2016-04-21T01:24:31.413Z,0
2016-04-21T01:25:31.542Z,0
2016-04-21T01:26:31.467Z,0
2016-04-21T01:27:31.502Z,0
2016-04-21T01:28:31.552Z,0
2016-04-21T01:29:31.617Z,0
2016-04-21T01:30:31.636Z,0
2016-04-21T01:31:31.655Z,0
2016-04-21T01:32:31.751Z,0
2016-04-21T01:33:31.707Z,0
2016-04-21T01:34:31.742Z,0
2016-04-21T01:35:31.792Z,0
2016-04-21T01:36:31.060Z,0
2016-04-21T01:37:31.093Z,0
2016-04-21T01:38:31.894Z,0
2016-04-21T01:39:31.959Z,0
2016-04-21T01:40:32.009Z,0
2016-04-21T01:41:31.995Z,0
2016-04-21T01:42:32.029Z,0
2016-04-21T01:43:32.078Z,0
2016-04-21T01:44:32.144Z,0
2016-04-21T01:45:32.147Z,0
2016-04-21T01:46:32.197Z,0
2016-04-21T01:47:32.309Z,0
2016-04-21T01:48:33.467Z,0
2016-04-21T01:49:32.142Z,0
2016-04-21T01:50:32.332Z,0
2016-04-21T01:51:32.397Z,0
2016-04-21T01:52:32.384Z,0
2016-04-21T01:53:32.419Z,0
2016-04-21T01:54:32.531Z,0
2016-04-21T01:55:32.502Z,0
2016-04-21T01:56:32.536Z,0
2016-04-21T01:57:32.585Z,0
2016-04-21T01:58:32.635Z,0
2016-04-21T01:59:32.637Z,0
2016-04-21T02:00:32.702Z,0
2016-04-21T02:01:32.799Z,0
2016-04-21T02:02:32.771Z,0
2016-04-21T02:03:32.774Z,0
2016-04-21T02:04:32.807Z,0
2016-04-21T02:05:32.919Z,0
2016-04-21T02:06:32.890Z,0
2016-04-21T02:07:32.925Z,0
2016-04-21T02:08:32.943Z,0
2016-04-21T02:09:33.040Z,0
2016-04-21T02:10:33.026Z,0
2016-04-21T02:11:33.045Z,0
2016-04-21T02:12:33.156Z,0
2016-04-21T02:13:33.129Z,0
2016-04-21T02:14:33.163Z,0
2016-04-21T02:15:33.259Z,0
2016-04-21T02:16:33.292Z,0
2016-04-21T02:17:32.498Z,0
2016-04-21T02:18:33.297Z,0
2016-04-21T02:19:33.394Z,0
2016-04-21T02:20:33.398Z,0
2016-04-21T02:21:33.431Z,0
2016-04-21T02:22:33.496Z,0
2016-04-21T02:23:33.421Z,0
2016-04-21T02:24:33.518Z,0
2016-04-21T02:25:33.552Z,0
2016-04-21T02:26:33.633Z,0
2016-04-21T02:27:33.666Z,0
2016-04-21T02:28:32.888Z,0
2016-04-21T02:29:33.719Z,0
2016-04-21T02:30:33.752Z,0
2016-04-21T02:31:33.818Z,0
2016-04-21T02:32:33.804Z,0
2016-04-21T02:33:33.854Z,0
2016-04-21T02:34:33.966Z,0
2016-04-21T02:35:33.906Z,0
2016-04-21T02:36:33.925Z,0
2016-04-21T02:37:34.052Z,0
2016-04-21T02:38:34.055Z,0
2016-04-21T02:39:33.277Z,0
2016-04-21T02:40:34.076Z,0
2016-04-21T02:41:34.204Z,0
2016-04-21T02:42:34.190Z,0
2016-04-21T02:43:34.178Z,0
2016-04-21T02:44:34.243Z,0
2016-04-21T02:45:34.276Z,0
2016-04-21T02:46:34.296Z,0
2016-04-21T02:47:34.329Z,0
2016-04-21T02:48:34.379Z,0
2016-04-21T02:49:34.428Z,0
2016-04-21T02:50:34.431Z,0
2016-04-21T02:51:34.465Z,0
2016-04-21T02:52:34.530Z,0
2016-04-21T02:53:34.548Z,0
2016-04-21T02:54:34.567Z,0
2016-04-21T02:55:34.647Z,0
2016-04-21T02:56:34.681Z,0
2016-04-21T02:57:34.668Z,0
2016-04-21T02:58:34.719Z,0
2016-04-21T02:59:34.752Z,0
2016-04-21T03:00:34.849Z,0
2016-04-21T03:01:34.836Z,0
2016-04-21T03:02:34.854Z,0
2016-04-21T03:03:34.904Z,0
2016-04-21T03:04:34.953Z,0
2016-04-21T03:05:34.955Z,0
2016-04-21T03:06:35.005Z,0
2016-04-21T03:07:35.132Z,0
2016-04-21T03:08:35.057Z,0
2016-04-21T03:09:35.092Z,0
2016-04-21T03:10:35.126Z,0
2016-04-21T03:11:35.191Z,0
2016-04-21T03:12:35.193Z,0
2016-04-21T03:13:35.227Z,0
2016-04-21T03:14:35.277Z,0
2016-04-21T03:15:35.342Z,0
2016-04-21T03:16:35.329Z,0
2016-04-21T03:17:35.409Z,0
2016-04-21T03:18:35.490Z,0
2016-04-21T03:19:35.447Z,0
2016-04-21T03:20:35.464Z,0
2016-04-21T03:21:35.581Z,0
2016-04-21T03:22:35.588Z,0
2016-04-21T03:23:35.591Z,0
2016-04-21T03:24:35.625Z,0
2016-04-21T03:25:35.690Z,0
2016-04-21T03:26:35.724Z,0
2016-04-21T03:27:35.726Z,0
2016-04-21T03:28:35.793Z,0
2016-04-21T03:29:35.857Z,0
2016-04-21T03:30:35.875Z,0
2016-04-21T03:31:35.862Z,0
2016-04-21T03:32:35.881Z,0
2016-04-21T03:33:36.025Z,0
2016-04-21T03:34:36.011Z,0
2016-04-21T03:35:35.998Z,0
2016-04-21T03:36:36.064Z,0
2016-04-21T03:37:35.317Z,0
2016-04-21T03:38:36.194Z,0
2016-04-21T03:39:36.134Z,0
2016-04-21T03:40:36.230Z,0
2016-04-21T03:41:35.436Z,0
2016-04-21T03:42:36.267Z,0
2016-04-21T03:43:36.286Z,0
2016-04-21T03:44:36.350Z,0
2016-04-21T03:45:36.369Z,0
2016-04-21T03:46:36.387Z,0
2016-04-21T03:47:36.453Z,0
2016-04-21T03:48:36.533Z,0
2016-04-21T03:49:35.708Z,0
2016-04-21T03:50:36.507Z,0
2016-04-21T03:51:36.619Z,0
2016-04-21T03:52:36.653Z,5
2016-04-21T03:53:36.657Z,5
2016-04-21T03:54:36.659Z,5
2016-04-21T03:55:36.709Z,5
2016-04-21T03:56:36.758Z,5
2016-04-21T03:57:35.995Z,5
2016-04-21T03:58:36.826Z,5
2016-04-21T03:59:36.844Z,10
2016-04-21T04:00:36.862Z,10
2016-04-21T04:01:36.896Z,10
2016-04-21T04:02:36.978Z,10
2016-04-21T04:03:37.042Z,10
2016-04-21T04:04:37.029Z,15
2016-04-21T04:05:37.032Z,15
2016-04-21T04:06:37.097Z,15
2016-04-21T04:07:37.147Z,15
2016-04-21T04:08:37.180Z,15
2016-04-21T04:09:37.184Z,20
2016-04-21T04:10:37.264Z,20
2016-04-21T04:11:37.111Z,20
2016-04-21T04:12:36.504Z,20
2016-04-21T04:13:37.319Z,25
2016-04-21T04:14:37.446Z,25
2016-04-21T04:15:37.402Z,25
2016-04-21T04:16:37.421Z,30
2016-04-21T04:17:37.486Z,30
2016-04-21T04:18:37.521Z,30
2016-04-21T04:19:37.523Z,30
2016-04-21T04:20:37.557Z,35
2016-04-21T04:21:37.622Z,35
2016-04-21T04:22:37.641Z,35
2016-04-21T04:23:36.940Z,35
2016-04-21T04:24:37.724Z,40
2016-04-21T04:25:37.773Z,40
2016-04-21T04:26:37.807Z,40
2016-04-21T04:27:37.810Z,45
2016-04-21T04:28:37.843Z,45
2016-04-21T04:29:37.957Z,45
2016-04-21T04:30:37.928Z,45
2016-04-21T04:31:37.931Z,50
2016-04-21T04:32:37.995Z,50
2016-04-21T04:33:38.076Z,50
2016-04-21T04:34:38.172Z,55
2016-04-21T04:35:38.082Z,55
2016-04-21T04:36:38.162Z,55
2016-04-21T04:37:38.212Z,55
2016-04-21T04:38:38.246Z,60
2016-04-21T04:39:38.264Z,60
2016-04-21T04:40:38.251Z,60
2016-04-21T04:41:38.128Z,60
2016-04-21T04:42:38.319Z,65
2016-04-21T04:43:38.353Z,65
2016-04-21T04:44:38.387Z,65
2016-04-21T04:45:38.452Z,65
2016-04-21T04:46:39.799Z,70
2016-04-21T04:47:38.519Z,70
2016-04-21T04:48:38.430Z,70
2016-04-21T04:49:38.635Z,70
2016-04-21T04:50:38.622Z,75
2016-04-21T04:51:38.827Z,75
2016-04-21T04:52:38.643Z,75
2016-04-21T04:53:38.708Z,75
2016-04-21T04:54:40.071Z,80
2016-04-21T04:55:38.792Z,80
2016-04-21T04:56:38.888Z,80
2016-04-21T04:57:38.876Z,80
2016-04-21T04:58:44.862Z,85
2016-04-21T04:59:39.099Z,85
2016-04-21T05:00:39.054Z,85
2016-04-21T05:01:41.871Z,85
2016-04-21T05:02:41.732Z,85
2016-04-21T05:03:40.657Z,90
2016-04-21T05:04:39.112Z,90
2016-04-21T05:05:39.318Z,90
2016-04-21T05:06:39.367Z,90
2016-04-21T05:07:39.308Z,90
2016-04-21T05:08:39.234Z,95
2016-04-21T05:09:39.267Z,95
2016-04-21T05:10:39.332Z,95
2016-04-21T05:11:39.381Z,95
2016-04-21T05:12:39.416Z,95
2016-04-21T05:13:39.605Z,100
2016-04-21T05:14:39.483Z,100
2016-04-21T05:15:39.502Z,100
2016-04-21T05:16:39.630Z,100
2016-04-21T05:17:39.710Z,100
2016-04-21T05:18:39.666Z,100
2016-04-21T05:19:39.622Z,105
2016-04-21T05:20:39.797Z,105
2016-04-21T05:21:39.830Z,105
2016-04-21T05:22:39.786Z,105
2016-04-21T05:23:40.054Z,105
2016-04-21T05:24:40.073Z,110
2016-04-21T05:25:41.201Z,110
2016-04-21T05:26:39.906Z,110
2016-04-21T05:27:40.127Z,110
2016-04-21T05:28:44.709Z,110
2016-04-21T05:29:42.040Z,110
2016-04-21T05:30:42.152Z,110
2016-04-21T05:31:43.201Z,115
2016-04-21T05:32:40.157Z,115
2016-04-21T05:33:40.290Z,115
2016-04-21T05:34:41.544Z,115
2016-04-21T05:35:39.951Z,115
2016-04-21T05:36:40.250Z,115
2016-04-21T05:37:40.415Z,115
2016-04-21T05:38:40.887Z,115
2016-04-21T05:39:42.546Z,115
2016-04-21T05:40:40.424Z,115
2016-04-21T05:41:40.442Z,115
2016-04-21T05:42:40.350Z,115
2016-04-21T05:43:40.510Z,115
2016-04-21T05:44:41.215Z,115
2016-04-21T05:45:40.733Z,120
2016-04-21T05:46:40.706Z,120
2016-04-21T05:47:42.364Z,120
2016-04-21T05:48:40.726Z,120
2016-04-21T05:49:40.729Z,120
2016-04-21T05:50:40.981Z,120
2016-04-21T05:51:40.828Z,120
2016-04-21T05:52:40.893Z,120
2016-04-21T05:53:44.147Z,125
2016-04-21T05:54:40.867Z,125
2016-04-21T05:55:40.932Z,125
2016-04-21T05:56:41.045Z,125
2016-04-21T05:57:40.969Z,125
2016-04-21T05:58:41.018Z,125
2016-04-21T05:59:41.069Z,125
2016-04-21T06:00:41.118Z,125
2016-04-21T06:01:41.121Z,125
2016-04-21T06:02:41.186Z,130
2016-04-21T06:03:41.266Z,130
2016-04-21T06:04:41.238Z,130
2016-04-21T06:05:41.335Z,130
2016-04-21T06:06:41.431Z,130
2016-04-21T06:07:41.387Z,130
2016-04-21T06:08:41.404Z,130
2016-04-21T06:09:41.439Z,130
2016-04-21T06:10:41.442Z,130
2016-04-21T06:11:41.570Z,130
2016-04-21T06:12:42.197Z,135
2016-04-21T06:13:48.481Z,135
2016-04-21T06:14:45.296Z,135
2016-04-21T06:15:43.534Z,135
2016-04-21T06:16:45.020Z,135
2016-04-21T06:17:45.914Z,135
2016-04-21T06:18:44.761Z,135
2016-04-21T06:19:47.622Z,135
2016-04-21T06:20:45.203Z,135
2016-04-21T06:21:45.268Z,135
2016-04-21T06:22:45.942Z,140
2016-04-21T06:23:43.227Z,140
2016-04-21T06:24:45.088Z,140
2016-04-21T06:25:44.622Z,140
2016-04-21T06:26:44.703Z,140
2016-04-21T06:27:45.363Z,140
2016-04-21T06:28:44.849Z,140
2016-04-21T06:29:45.321Z,140
2016-04-21T06:30:44.980Z,140
2016-04-21T06:31:43.046Z,140
2016-04-21T06:32:44.377Z,145
2016-04-21T06:33:44.441Z,145
2016-04-21T06:34:43.616Z,145
2016-04-21T06:35:44.056Z,145
2016-04-21T06:36:43.387Z,145
2016-04-21T06:37:43.937Z,145
2016-04-21T06:38:45.705Z,145
2016-04-21T06:39:44.410Z,145
2016-04-21T06:40:43.585Z,145
2016-04-21T06:41:46.323Z,145
2016-04-21T06:42:45.356Z,145
2016-04-21T06:43:45.483Z,150
2016-04-21T06:44:43.987Z,150
2016-04-21T06:45:45.895Z,150
2016-04-21T06:46:47.164Z,150
2016-04-21T06:47:43.417Z,150
2016-04-21T06:48:46.185Z,150
2016-04-21T06:49:43.406Z,150
2016-04-21T06:50:46.034Z,150
2016-04-21T06:51:44.053Z,150
2016-04-21T06:52:44.523Z,150
2016-04-21T06:53:46.964Z,155
2016-04-21T06:54:43.498Z,155
2016-04-21T06:55:45.610Z,160
2016-04-21T06:56:44.488Z,155
2016-04-21T06:57:45.491Z,160
2016-04-21T06:58:45.539Z,155
2016-04-21T06:59:45.308Z,155
2016-04-21T07:00:44.436Z,155
2016-04-21T07:01:44.907Z,155
2016-04-21T07:02:43.597Z,155
2016-04-21T07:03:44.069Z,160
2016-04-21T07:04:43.634Z,160
2016-04-21T07:05:45.012Z,160
2016-04-21T07:06:44.624Z,160
2016-04-21T07:07:44.829Z,160
2016-04-21T07:08:44.895Z,160
2016-04-21T07:09:46.038Z,160
2016-04-21T07:10:50.743Z,160
2016-04-21T07:11:46.528Z,160
2016-04-21T07:12:47.187Z,160
2016-04-21T07:13:43.815Z,160
2016-04-21T07:14:43.895Z,160
2016-04-21T07:15:43.867Z,165
2016-04-21T07:16:43.900Z,165
2016-04-21T07:17:45.434Z,165
2016-04-21T07:18:48.453Z,165
2016-04-21T07:19:45.861Z,165
2016-04-21T07:20:43.881Z,165
2016-04-21T07:21:45.180Z,165
2016-04-21T07:22:44.510Z,165
2016-04-21T07:23:46.623Z,165
2016-04-21T07:24:45.673Z,165
2016-04-21T07:25:50.316Z,170
2016-04-21T07:26:46.459Z,170
2016-04-21T07:27:46.118Z,170
2016-04-21T07:28:47.027Z,170
2016-04-21T07:29:46.858Z,170
2016-04-21T07:30:47.172Z,170
2016-04-21T07:31:46.035Z,170
2016-04-21T07:32:45.928Z,170
2016-04-21T07:33:44.555Z,175
2016-04-21T07:34:46.199Z,175
2016-04-21T07:35:46.435Z,175
2016-04-21T07:36:46.798Z,175
2016-04-21T07:37:45.411Z,175
2016-04-21T07:38:45.054Z,175
2016-04-21T07:39:44.774Z,175
2016-04-21T07:40:44.810Z,175
2016-04-21T07:41:44.812Z,180
2016-04-21T07:42:45.643Z,180
2016-04-21T07:43:45.099Z,180
2016-04-21T07:44:45.023Z,180
2016-04-21T07:45:45.213Z,180
2016-04-21T07:46:45.106Z,180
2016-04-21T07:47:45.718Z,180
2016-04-21T07:48:45.159Z,185
2016-04-21T07:49:45.208Z,185
2016-04-21T07:50:45.648Z,185
2016-04-21T07:51:46.792Z,185
2016-04-21T07:52:45.670Z,185
2016-04-21T07:53:45.297Z,185
2016-04-21T07:54:45.331Z,190
2016-04-21T07:55:45.412Z,190
2016-04-21T07:56:45.508Z,190
2016-04-21T07:57:45.433Z,190
2016-04-21T07:58:45.530Z,190
2016-04-21T07:59:45.578Z,190
2016-04-21T08:00:45.550Z,195
2016-04-21T08:01:45.599Z,195
2016-04-21T08:02:45.744Z,195
2016-04-21T08:03:45.668Z,195
2016-04-21T08:04:45.701Z,195
2016-04-21T08:05:45.783Z,195
2016-04-21T08:06:46.332Z,195
2016-04-21T08:07:45.819Z,195
2016-04-21T08:08:45.853Z,195
2016-04-21T08:09:45.996Z,195
2016-04-21T08:10:46.671Z,195
2016-04-21T08:11:47.595Z,200
2016-04-21T08:12:46.020Z,200
2016-04-21T08:13:47.179Z,200
2016-04-21T08:14:46.151Z,200
2016-04-21T08:15:46.138Z,200
2016-04-21T08:16:46.171Z,200
2016-04-21T08:17:46.331Z,200
2016-04-21T08:18:46.333Z,205
2016-04-21T08:19:46.305Z,205
2016-04-21T08:20:46.323Z,205
2016-04-21T08:21:46.420Z,205
2016-04-21T08:22:46.515Z,205
2016-04-21T08:23:46.455Z,205
2016-04-21T08:24:46.459Z,210
2016-04-21T08:25:46.414Z,210
2016-04-21T08:26:46.605Z,210
2016-04-21T08:27:46.607Z,210
2016-04-21T08:28:47.486Z,210
2016-04-21T08:29:46.863Z,210
2016-04-21T08:30:46.771Z,215
2016-04-21T08:31:46.978Z,215
2016-04-21T08:32:48.308Z,215
2016-04-21T08:33:46.920Z,215
2016-04-21T08:34:46.877Z,215
2016-04-21T08:35:47.238Z,215
2016-04-21T08:36:46.944Z,215
2016-04-21T08:37:46.962Z,220
2016-04-21T08:38:47.183Z,220
2016-04-21T08:39:47.108Z,220
2016-04-21T08:40:47.142Z,225
2016-04-21T08:41:46.349Z,225
2016-04-21T08:42:47.257Z,225
2016-04-21T08:43:47.244Z,225
2016-04-21T08:44:47.310Z,225
2016-04-21T08:45:47.281Z,225
2016-04-21T08:46:47.408Z,225
2016-04-21T08:47:48.427Z,230
2016-04-21T08:48:47.868Z,230
2016-04-21T08:49:47.463Z,230
2016-04-21T08:50:47.512Z,230
2016-04-21T08:51:47.812Z,235
2016-04-21T08:52:47.679Z,235
2016-04-21T08:53:46.948Z,240
2016-04-21T08:54:47.794Z,245
2016-04-21T08:55:47.703Z,245
2016-04-21T08:56:48.049Z,245
2016-04-21T08:57:47.849Z,245
2016-04-21T08:58:47.805Z,245
2016-04-21T08:59:47.838Z,240
2016-04-21T09:00:47.904Z,245
2016-04-21T09:01:47.970Z,240
2016-04-21T09:02:47.972Z,245
2016-04-21T09:03:48.005Z,245
2016-04-21T09:04:48.149Z,250
2016-04-21T09:05:48.214Z,255
2016-04-21T09:06:48.155Z,255
2016-04-21T09:07:48.173Z,255
2016-04-21T09:08:48.254Z,255
2016-04-21T09:09:48.319Z,260
2016-04-21T09:10:48.415Z,260
2016-04-21T09:11:47.559Z,260
2016-04-21T09:12:48.389Z,265
2016-04-21T09:13:48.455Z,265
2016-04-21T09:14:48.474Z,265
2016-04-21T09:15:48.491Z,270
2016-04-21T09:16:48.525Z,270
2016-04-21T09:17:48.590Z,275
2016-04-21T09:18:48.702Z,275
2016-04-21T09:19:48.659Z,275
2016-04-21T09:20:48.692Z,275
2016-04-21T09:21:48.789Z,275
2016-04-21T09:22:48.838Z,280
2016-04-21T09:23:48.872Z,280
2016-04-21T09:24:48.906Z,285
2016-04-21T09:25:48.768Z,290
2016-04-21T09:26:48.975Z,290
2016-04-21T09:27:48.993Z,295
2016-04-21T09:28:49.480Z,295
2016-04-21T09:29:49.123Z,300
2016-04-21T09:30:49.094Z,295
2016-04-21T09:31:49.722Z,295
2016-04-21T09:32:49.161Z,295
2016-04-21T09:33:48.493Z,300
2016-04-21T09:34:49.261Z,300
2016-04-21T09:35:49.280Z,300
2016-04-21T09:36:49.422Z,305
2016-04-21T09:37:49.457Z,305
2016-04-21T09:38:49.427Z,310
2016-04-21T09:39:49.556Z,315
2016-04-21T09:40:49.887Z,325
2016-04-21T09:41:49.561Z,325
2016-04-21T09:42:49.626Z,325
2016-04-21T09:43:49.613Z,330
2016-04-21T09:44:49.726Z,335
2016-04-21T09:45:49.696Z,335
2016-04-21T09:46:49.762Z,340
2016-04-21T09:47:49.812Z,345
2016-04-21T09:48:49.876Z,350
2016-04-21T09:49:50.068Z,355
2016-04-21T09:50:49.929Z,360
2016-04-21T09:51:50.181Z,365
2016-04-21T09:52:50.045Z,525
2016-04-21T09:53:50.015Z,1365
2016-04-21T09:54:51.675Z,2245
2016-04-21T09:55:50.537Z,2470
2016-04-21T09:56:54.680Z,2525
2016-04-21T09:57:50.479Z,2585
2016-04-21T09:58:49.513Z,2610
2016-04-21T09:59:50.314Z,2645
2016-04-21T10:00:53.128Z,2675
2016-04-21T10:01:51.600Z,2725
2016-04-21T10:02:54.228Z,2725
2016-04-21T10:03:50.495Z,2745
2016-04-21T10:04:51.560Z,2760
2016-04-21T10:05:52.750Z,2765
2016-04-21T10:06:50.738Z,2755
2016-04-21T10:07:51.585Z,2745
2016-04-21T10:08:50.712Z,2755
2016-04-21T10:09:50.808Z,2800
2016-04-21T10:10:50.890Z,2865
2016-04-21T10:11:51.000Z,2760
2016-04-21T10:12:51.093Z,2750
2016-04-21T10:13:51.171Z,2780
2016-04-21T10:14:51.296Z,2800
2016-04-21T10:15:51.306Z,2825
2016-04-21T10:16:51.763Z,2830
2016-04-21T10:17:51.515Z,2795
2016-04-21T10:18:51.519Z,2810
2016-04-21T10:19:52.803Z,2800
2016-04-21T10:20:51.876Z,2810
2016-04-21T10:21:51.743Z,2805
2016-04-21T10:22:51.784Z,2820
2016-04-21T10:23:51.839Z,2770
2016-04-21T10:24:51.957Z,2775
2016-04-21T10:25:51.978Z,2745
2016-04-21T10:26:52.060Z,2760
2016-04-21T10:27:52.190Z,2795
2016-04-21T10:28:52.148Z,2795
2016-04-21T10:29:52.216Z,2795
2016-04-21T10:30:52.298Z,2780
2016-04-21T10:31:52.332Z,2795
2016-04-21T10:32:52.398Z,2810
2016-04-21T10:33:52.432Z,2845
2016-04-21T10:34:51.717Z,2830
2016-04-21T10:35:52.564Z,2810
2016-04-21T10:36:59.364Z,2830
2016-04-21T10:38:01.243Z,2790
2016-04-21T10:39:01.167Z,2785
2016-04-21T10:39:56.607Z,2810
2016-04-21T10:40:54.532Z,2820
2016-04-21T10:41:55.332Z,2820
2016-04-21T10:42:55.179Z,2800
2016-04-21T10:43:55.087Z,2825
2016-04-21T10:44:55.340Z,2765
2016-04-21T10:45:55.546Z,2795
2016-04-21T10:46:54.017Z,2830
2016-04-21T10:47:53.615Z,2840
2016-04-21T10:48:52.679Z,2895
2016-04-21T10:49:53.573Z,2900
2016-04-21T10:50:53.482Z,2910
2016-04-21T10:51:53.578Z,2875
2016-04-21T10:52:53.581Z,2890
2016-04-21T10:53:53.771Z,2885
2016-04-21T10:54:53.726Z,2880
2016-04-21T10:55:53.808Z,2945
2016-04-21T10:56:53.888Z,2975
2016-04-21T10:57:53.938Z,3000
2016-04-21T10:58:54.191Z,3085
2016-04-21T10:59:54.099Z,3105
2016-04-21T11:00:54.102Z,3085
2016-04-21T11:01:54.277Z,3075
2016-04-21T11:02:54.217Z,3050
2016-04-21T11:03:54.266Z,3025
2016-04-21T11:04:54.441Z,3055
2016-04-21T11:05:54.460Z,3035
2016-04-21T11:06:54.494Z,3065
2016-04-21T11:07:54.511Z,3120
2016-04-21T11:08:54.639Z,3370
2016-04-21T11:09:54.735Z,3685
2016-04-21T11:10:54.879Z,3730
2016-04-21T11:11:54.757Z,3765
2016-04-21T11:12:55.635Z,3710
2016-04-21T11:13:54.871Z,3705
2016-04-21T11:14:54.984Z,3705
2016-04-21T11:15:55.080Z,3665
2016-04-21T11:16:55.208Z,3780
2016-04-21T11:17:55.287Z,3825
2016-04-21T11:18:55.212Z,3760
2016-04-21T11:19:55.747Z,3785
2016-04-21T11:20:55.375Z,3740
2016-04-21T11:21:55.611Z,3765
2016-04-21T11:22:55.537Z,3785
2016-04-21T11:23:55.586Z,3760
2016-04-21T11:24:55.636Z,3800
2016-04-21T11:25:55.684Z,3770
2016-04-21T11:26:55.703Z,3760
2016-04-21T11:27:55.206Z,3730
2016-04-21T11:28:55.193Z,3700
2016-04-21T11:29:55.914Z,3710
2016-04-21T11:30:55.980Z,3700
2016-04-21T11:31:56.091Z,3670
2016-04-21T11:32:56.188Z,3645
2016-04-21T11:33:55.488Z,3690
2016-04-21T11:34:56.350Z,3710
2016-04-21T11:35:58.258Z,3695
2016-04-21T11:36:56.355Z,3700
2016-04-21T11:37:55.716Z,3720
2016-04-21T11:38:56.657Z,3695
2016-04-21T11:39:55.769Z,3720
2016-04-21T11:40:56.663Z,3720
2016-04-21T11:41:57.463Z,3715
2016-04-21T11:42:56.824Z,3710
2016-04-21T11:43:56.874Z,3715
2016-04-21T11:44:56.971Z,3700
2016-04-21T11:45:57.130Z,3675
2016-04-21T11:46:59.054Z,3680
2016-04-21T11:47:57.072Z,3650
2016-04-21T11:48:57.309Z,3650
2016-04-21T11:49:57.390Z,3665
2016-04-21T11:50:57.362Z,3645
2016-04-21T11:51:58.615Z,3665
2016-04-21T11:52:58.601Z,3640
2016-04-21T11:53:58.306Z,3635
2016-04-21T11:54:57.981Z,3635
2016-04-21T11:55:58.594Z,3630
2016-04-21T11:56:58.081Z,3660
2016-04-21T11:57:57.771Z,3675
2016-04-21T11:58:57.789Z,3690
2016-04-21T11:59:57.901Z,3660
2016-04-21T12:00:58.294Z,3615
2016-04-21T12:01:58.110Z,3600
2016-04-21T12:02:58.081Z,3580
2016-04-21T12:03:57.412Z,3590
2016-04-21T12:04:58.212Z,3595
2016-04-21T12:05:58.261Z,3545
2016-04-21T12:06:58.452Z,3505
2016-04-21T12:07:58.454Z,3530
2016-04-21T12:08:58.457Z,3515
2016-04-21T12:09:58.663Z,3545
2016-04-21T12:10:59.884Z,3560
2016-04-21T12:11:59.355Z,3545
2016-04-21T12:13:00.530Z,3525
2016-04-21T12:13:58.813Z,3555
2016-04-21T12:14:59.160Z,3585
2016-04-21T12:16:00.023Z,3590
2016-04-21T12:16:58.979Z,3580
2016-04-21T12:17:59.168Z,3560
2016-04-21T12:18:59.249Z,3535
2016-04-21T12:19:59.142Z,3520
2016-04-21T12:20:59.301Z,3520
2016-04-21T12:21:59.398Z,3515
2016-04-21T12:22:58.947Z,3455
2016-04-21T12:23:59.857Z,3380
2016-04-21T12:24:59.547Z,3360
2016-04-21T12:26:00.425Z,3370
2016-04-21T12:27:00.770Z,3400
2016-04-21T12:27:59.806Z,3445
2016-04-21T12:28:59.979Z,3410
2016-04-21T12:29:59.888Z,3340
2016-04-21T12:31:01.781Z,3250
2016-04-21T12:32:01.519Z,3240
2016-04-21T12:33:00.209Z,3270
2016-04-21T12:34:00.102Z,3260
2016-04-21T12:35:00.167Z,3265
2016-04-21T12:36:02.169Z,3260
2016-04-21T12:37:01.204Z,3250
2016-04-21T12:38:00.738Z,3210
2016-04-21T12:38:59.647Z,3205
2016-04-21T12:40:00.290Z,3175
2016-04-21T12:41:01.715Z,3145
2016-04-21T12:42:00.608Z,3150
2016-04-21T12:43:00.752Z,3140
2016-04-21T12:44:00.988Z,3110
2016-04-21T12:45:02.226Z,3095
2016-04-21T12:46:00.853Z,3050
2016-04-21T12:47:01.152Z,3010
2016-04-21T12:48:01.109Z,3015
2016-04-21T12:49:01.048Z,3025
2016-04-21T12:50:02.271Z,3010
2016-04-21T12:51:01.445Z,2990
2016-04-21T12:52:02.010Z,2995
2016-04-21T12:53:01.904Z,2995
2016-04-21T12:54:02.984Z,2955
2016-04-21T12:55:01.393Z,2945
2016-04-21T12:56:01.020Z,2935
2016-04-21T12:57:03.742Z,2925
2016-04-21T12:58:04.167Z,2950
2016-04-21T12:59:01.842Z,2955
2016-04-21T13:00:02.220Z,2950
2016-04-21T13:01:02.081Z,2945
2016-04-21T13:02:03.100Z,2925
2016-04-21T13:03:02.118Z,2890
2016-04-21T13:04:02.464Z,2905
2016-04-21T13:05:04.529Z,2915
2016-04-21T13:06:04.266Z,2875
2016-04-21T13:07:02.441Z,2835
2016-04-21T13:08:02.350Z,2825
2016-04-21T13:09:03.868Z,2855
2016-04-21T13:10:03.152Z,2855
2016-04-21T13:11:02.546Z,2855
2016-04-21T13:12:02.627Z,2845
2016-04-21T13:13:02.801Z,2840
2016-04-21T13:14:04.396Z,2820
2016-04-21T13:15:02.916Z,2815
2016-04-21T13:16:02.934Z,2800
2016-04-21T13:17:02.937Z,2795
2016-04-21T13:18:03.330Z,2775
2016-04-21T13:19:04.942Z,2750
2016-04-21T13:20:03.007Z,2730
2016-04-21T13:21:03.229Z,2700
2016-04-21T13:22:04.560Z,2670
2016-04-21T13:23:04.907Z,2665
2016-04-21T13:24:03.424Z,2615
2016-04-21T13:25:02.723Z,2645
2016-04-21T13:26:03.679Z,2715
2016-04-21T13:27:07.384Z,2735
2016-04-21T13:28:05.342Z,2730
2016-04-21T13:29:03.828Z,2745
2016-04-21T13:30:06.050Z,2725
2016-04-21T13:31:05.428Z,2720
2016-04-21T13:32:03.274Z,2745
2016-04-21T13:33:03.433Z,2730
2016-04-21T13:34:04.154Z,2700
2016-04-21T13:35:06.032Z,2645
2016-04-21T13:36:04.159Z,2625
2016-04-21T13:37:04.178Z,2630
2016-04-21T13:38:04.258Z,2660
2016-04-21T13:39:05.402Z,2595
2016-04-21T13:40:04.139Z,2535
2016-04-21T13:41:04.845Z,2475
2016-04-21T13:42:06.692Z,2450
2016-04-21T13:43:03.788Z,2390
2016-04-21T13:44:04.618Z,2365
2016-04-21T13:45:04.873Z,2340
2016-04-21T13:46:05.813Z,2310
2016-04-21T13:47:04.816Z,2275
2016-04-21T13:48:04.866Z,2250
2016-04-21T13:49:05.541Z,2265
2016-04-21T13:50:05.293Z,2280
2016-04-21T13:51:07.155Z,2295
2016-04-21T13:52:05.251Z,2300
2016-04-21T13:53:05.661Z,2285
2016-04-21T13:54:06.116Z,2245
2016-04-21T13:55:05.369Z,2215
2016-04-21T13:56:05.403Z,2220
2016-04-21T13:57:06.703Z,2235